sensor_id;sensor_type;location;lat;lon;timestamp;temperature;humidity
23568;DHT22;11962;50.838;4.430;2023-05-10T00:01:05;14.80;99.90
23568;DHT22;11962;50.838;4.430;2023-05-10T00:03:31;14.80;99.90
23568;DHT22;11962;50.838;4.430;2023-05-10T00:05:57;14.90;99.90
23568;DHT22;11962;50.838;4.430;2023-05-10T00:08:23;14.90;99.90
23568;DHT22;11962;50.838;4.430;2023-05-10T00:10:49;14.90;99.90
23568;DHT22;11962;50.838;4.430;2023-05-10T00:13:15;14.90;99.90
23568;DHT22;11962;50.838;4.430;2023-05-10T00:15:40;14.90;99.90
23568;DHT22;11962;50.838;4.430;2023-05-10T00:18:06;14.90;99.90
23568;DHT22;11962;50.838;4.430;2023-05-10T00:20:32;14.90;99.90
23568;DHT22;11962;50.838;4.430;2023-05-10T00:22:58;14.90;99.90
23568;DHT22;11962;50.838;4.430;2023-05-10T00:25:24;14.90;99.90
23568;DHT22;11962;50.838;4.430;2023-05-10T00:27:50;14.90;99.90
23568;DHT22;11962;50.838;4.430;2023-05-10T00:30:16;14.90;99.90
23568;DHT22;11962;50.838;4.430;2023-05-10T00:32:41;14.90;99.90
23568;DHT22;11962;50.838;4.430;2023-05-10T00:35:08;15.00;99.90
23568;DHT22;11962;50.838;4.430;2023-05-10T00:37:34;15.10;99.90
23568;DHT22;11962;50.838;4.430;2023-05-10T00:40:00;15.00;99.90
23568;DHT22;11962;50.838;4.430;2023-05-10T00:42:25;15.00;99.90
23568;DHT22;11962;50.838;4.430;2023-05-10T00:44:51;15.10;99.90
23568;DHT22;11962;50.838;4.430;2023-05-10T00:47:17;15.00;99.90
23568;DHT22;11962;50.838;4.430;2023-05-10T00:49:43;15.00;99.90
23568;DHT22;11962;50.838;4.430;2023-05-10T00:52:10;15.00;99.90
23568;DHT22;11962;50.838;4.430;2023-05-10T00:54:36;15.00;99.90
23568;DHT22;11962;50.838;4.430;2023-05-10T00:57:02;15.00;99.90
23568;DHT22;11962;50.838;4.430;2023-05-10T00:59:28;15.00;99.90
23568;DHT22;11962;50.838;4.430;2023-05-10T01:01:54;15.00;99.90
23568;DHT22;11962;50.838;4.430;2023-05-10T01:04:20;15.00;99.90
23568;DHT22;11962;50.838;4.430;2023-05-10T01:06:51;15.00;99.90
23568;DHT22;11962;50.838;4.430;2023-05-10T01:09:19;15.10;99.90
23568;DHT22;11962;50.838;4.430;2023-05-10T01:11:45;15.10;99.90
23568;DHT22;11962;50.838;4.430;2023-05-10T01:14:11;15.00;99.90
23568;DHT22;11962;50.838;4.430;2023-05-10T01:16:38;15.10;99.90
23568;DHT22;11962;50.838;4.430;2023-05-10T01:19:12;15.10;99.90
23568;DHT22;11962;50.838;4.430;2023-05-10T01:31:22;15.00;99.90
23568;DHT22;11962;50.838;4.430;2023-05-10T01:33:39;15.00;99.90
23568;DHT22;11962;50.838;4.430;2023-05-10T01:37:02;15.00;99.90
23568;DHT22;11962;50.838;4.430;2023-05-10T01:39:25;15.00;99.90
23568;DHT22;11962;50.838;4.430;2023-05-10T01:42:03;15.00;99.90
23568;DHT22;11962;50.838;4.430;2023-05-10T01:50:00;15.00;99.90
23568;DHT22;11962;50.838;4.430;2023-05-10T01:52:32;15.00;99.90
23568;DHT22;11962;50.838;4.430;2023-05-10T01:55:10;15.00;99.90
23568;DHT22;11962;50.838;4.430;2023-05-10T01:57:39;15.00;99.90
23568;DHT22;11962;50.838;4.430;2023-05-10T02:00:07;14.90;99.90
23568;DHT22;11962;50.838;4.430;2023-05-10T02:02:37;14.90;99.90
23568;DHT22;11962;50.838;4.430;2023-05-10T02:05:05;14.90;99.90
23568;DHT22;11962;50.838;4.430;2023-05-10T02:07:36;14.80;99.90
23568;DHT22;11962;50.838;4.430;2023-05-10T02:10:06;14.80;99.90
23568;DHT22;11962;50.838;4.430;2023-05-10T02:12:44;14.80;99.90
23568;DHT22;11962;50.838;4.430;2023-05-10T02:15:12;14.90;99.90
23568;DHT22;11962;50.838;4.430;2023-05-10T02:17:42;14.90;99.90
23568;DHT22;11962;50.838;4.430;2023-05-10T02:20:09;14.90;99.90
23568;DHT22;11962;50.838;4.430;2023-05-10T02:22:36;14.80;99.90
23568;DHT22;11962;50.838;4.430;2023-05-10T02:25:03;14.80;99.90
23568;DHT22;11962;50.838;4.430;2023-05-10T02:27:30;14.80;99.90
23568;DHT22;11962;50.838;4.430;2023-05-10T02:29:56;14.80;99.90
23568;DHT22;11962;50.838;4.430;2023-05-10T02:32:25;14.80;99.90
23568;DHT22;11962;50.838;4.430;2023-05-10T02:34:52;14.80;99.90
23568;DHT22;11962;50.838;4.430;2023-05-10T02:37:20;14.80;99.90
23568;DHT22;11962;50.838;4.430;2023-05-10T02:39:47;14.90;99.90
23568;DHT22;11962;50.838;4.430;2023-05-10T02:42:16;14.90;99.90
23568;DHT22;11962;50.838;4.430;2023-05-10T02:44:44;14.80;99.90
23568;DHT22;11962;50.838;4.430;2023-05-10T02:47:11;14.80;99.90
23568;DHT22;11962;50.838;4.430;2023-05-10T02:49:37;14.80;99.90
23568;DHT22;11962;50.838;4.430;2023-05-10T02:52:05;14.80;99.90
23568;DHT22;11962;50.838;4.430;2023-05-10T02:54:45;14.80;99.90
23568;DHT22;11962;50.838;4.430;2023-05-10T02:57:17;14.80;99.90
23568;DHT22;11962;50.838;4.430;2023-05-10T02:59:47;14.80;99.90
23568;DHT22;11962;50.838;4.430;2023-05-10T03:02:13;14.80;99.90
23568;DHT22;11962;50.838;4.430;2023-05-10T03:04:39;14.80;99.90
23568;DHT22;11962;50.838;4.430;2023-05-10T03:07:05;14.70;99.90
23568;DHT22;11962;50.838;4.430;2023-05-10T03:09:31;14.70;99.90
23568;DHT22;11962;50.838;4.430;2023-05-10T03:12:18;14.70;99.90
23568;DHT22;11962;50.838;4.430;2023-05-10T03:20:20;14.80;99.90
23568;DHT22;11962;50.838;4.430;2023-05-10T03:22:51;14.70;99.90
23568;DHT22;11962;50.838;4.430;2023-05-10T03:25:19;14.70;99.90
23568;DHT22;11962;50.838;4.430;2023-05-10T03:27:47;14.70;99.90
23568;DHT22;11962;50.838;4.430;2023-05-10T03:30:13;14.70;99.90
23568;DHT22;11962;50.838;4.430;2023-05-10T03:32:39;14.70;99.90
23568;DHT22;11962;50.838;4.430;2023-05-10T03:35:12;14.70;99.90
23568;DHT22;11962;50.838;4.430;2023-05-10T03:37:38;14.60;99.90
23568;DHT22;11962;50.838;4.430;2023-05-10T03:40:05;14.60;99.90
23568;DHT22;11962;50.838;4.430;2023-05-10T03:42:31;14.50;99.90
23568;DHT22;11962;50.838;4.430;2023-05-10T03:44:57;14.50;99.90
23568;DHT22;11962;50.838;4.430;2023-05-10T03:47:23;14.50;99.90
23568;DHT22;11962;50.838;4.430;2023-05-10T03:49:49;14.50;99.90
23568;DHT22;11962;50.838;4.430;2023-05-10T03:52:14;14.50;99.90
23568;DHT22;11962;50.838;4.430;2023-05-10T03:54:40;14.50;99.90
23568;DHT22;11962;50.838;4.430;2023-05-10T03:57:06;14.60;99.90
23568;DHT22;11962;50.838;4.430;2023-05-10T03:59:32;14.60;99.90
23568;DHT22;11962;50.838;4.430;2023-05-10T04:01:58;14.50;99.90
23568;DHT22;11962;50.838;4.430;2023-05-10T04:04:23;14.50;99.90
23568;DHT22;11962;50.838;4.430;2023-05-10T04:06:50;14.60;99.90
23568;DHT22;11962;50.838;4.430;2023-05-10T04:09:15;14.60;99.90
23568;DHT22;11962;50.838;4.430;2023-05-10T04:11:42;14.70;99.90
23568;DHT22;11962;50.838;4.430;2023-05-10T04:14:08;14.80;99.90
23568;DHT22;11962;50.838;4.430;2023-05-10T04:16:34;14.80;99.90
23568;DHT22;11962;50.838;4.430;2023-05-10T04:19:00;14.80;99.90
23568;DHT22;11962;50.838;4.430;2023-05-10T04:21:26;14.80;99.90
23568;DHT22;11962;50.838;4.430;2023-05-10T04:23:51;14.70;99.90
23568;DHT22;11962;50.838;4.430;2023-05-10T04:26:17;14.70;99.90
23568;DHT22;11962;50.838;4.430;2023-05-10T04:28:43;14.70;99.90
23568;DHT22;11962;50.838;4.430;2023-05-10T04:31:10;14.70;99.90
23568;DHT22;11962;50.838;4.430;2023-05-10T04:33:36;14.70;99.90
23568;DHT22;11962;50.838;4.430;2023-05-10T04:36:02;14.70;99.90
23568;DHT22;11962;50.838;4.430;2023-05-10T04:38:29;14.70;99.90
23568;DHT22;11962;50.838;4.430;2023-05-10T04:41:03;14.70;99.90
23568;DHT22;11962;50.838;4.430;2023-05-10T04:43:29;14.70;99.90
23568;DHT22;11962;50.838;4.430;2023-05-10T04:45:56;14.70;99.90
23568;DHT22;11962;50.838;4.430;2023-05-10T04:48:22;14.70;99.90
23568;DHT22;11962;50.838;4.430;2023-05-10T04:50:48;14.70;99.90
23568;DHT22;11962;50.838;4.430;2023-05-10T04:53:13;14.70;99.90
23568;DHT22;11962;50.838;4.430;2023-05-10T04:55:39;14.80;99.90
23568;DHT22;11962;50.838;4.430;2023-05-10T04:58:05;14.80;99.90
23568;DHT22;11962;50.838;4.430;2023-05-10T05:00:31;14.80;99.90
23568;DHT22;11962;50.838;4.430;2023-05-10T05:02:57;14.80;99.90
23568;DHT22;11962;50.838;4.430;2023-05-10T05:05:23;14.90;99.90
23568;DHT22;11962;50.838;4.430;2023-05-10T05:07:48;14.90;99.90
23568;DHT22;11962;50.838;4.430;2023-05-10T05:10:14;14.90;99.90
23568;DHT22;11962;50.838;4.430;2023-05-10T05:12:40;15.00;99.90
23568;DHT22;11962;50.838;4.430;2023-05-10T05:15:06;14.90;99.90
23568;DHT22;11962;50.838;4.430;2023-05-10T05:17:33;14.90;99.90
23568;DHT22;11962;50.838;4.430;2023-05-10T05:19:59;14.90;99.90
23568;DHT22;11962;50.838;4.430;2023-05-10T05:22:25;15.00;99.90
23568;DHT22;11962;50.838;4.430;2023-05-10T05:24:57;15.00;99.90
23568;DHT22;11962;50.838;4.430;2023-05-10T05:27:24;15.00;99.90
23568;DHT22;11962;50.838;4.430;2023-05-10T05:29:54;15.00;99.90
23568;DHT22;11962;50.838;4.430;2023-05-10T05:32:21;15.10;99.90
23568;DHT22;11962;50.838;4.430;2023-05-10T05:34:47;15.10;99.90
23568;DHT22;11962;50.838;4.430;2023-05-10T05:37:18;15.10;99.90
23568;DHT22;11962;50.838;4.430;2023-05-10T05:39:44;15.10;99.90
23568;DHT22;11962;50.838;4.430;2023-05-10T05:42:11;15.10;99.90
23568;DHT22;11962;50.838;4.430;2023-05-10T05:44:37;14.90;99.90
23568;DHT22;11962;50.838;4.430;2023-05-10T05:47:03;14.80;99.90
23568;DHT22;11962;50.838;4.430;2023-05-10T05:49:28;14.80;99.90
23568;DHT22;11962;50.838;4.430;2023-05-10T05:51:58;14.70;99.90
23568;DHT22;11962;50.838;4.430;2023-05-10T05:54:23;14.70;99.90
23568;DHT22;11962;50.838;4.430;2023-05-10T05:56:49;14.80;99.90
23568;DHT22;11962;50.838;4.430;2023-05-10T05:59:15;15.00;99.90
23568;DHT22;11962;50.838;4.430;2023-05-10T06:01:40;15.10;99.90
23568;DHT22;11962;50.838;4.430;2023-05-10T06:04:06;15.10;99.90
23568;DHT22;11962;50.838;4.430;2023-05-10T06:06:32;15.10;99.90
23568;DHT22;11962;50.838;4.430;2023-05-10T06:08:57;15.10;99.90
23568;DHT22;11962;50.838;4.430;2023-05-10T06:11:23;15.10;99.90
23568;DHT22;11962;50.838;4.430;2023-05-10T06:13:49;15.10;99.90
23568;DHT22;11962;50.838;4.430;2023-05-10T06:16:15;15.20;99.90
23568;DHT22;11962;50.838;4.430;2023-05-10T06:18:40;15.10;99.90
23568;DHT22;11962;50.838;4.430;2023-05-10T06:21:06;15.20;99.90
23568;DHT22;11962;50.838;4.430;2023-05-10T06:23:32;15.10;99.90
23568;DHT22;11962;50.838;4.430;2023-05-10T06:25:58;15.10;99.90
23568;DHT22;11962;50.838;4.430;2023-05-10T06:28:23;15.10;99.90
23568;DHT22;11962;50.838;4.430;2023-05-10T06:30:49;15.20;99.90
23568;DHT22;11962;50.838;4.430;2023-05-10T06:33:15;15.10;99.90
23568;DHT22;11962;50.838;4.430;2023-05-10T06:35:41;15.20;99.90
23568;DHT22;11962;50.838;4.430;2023-05-10T06:38:07;15.20;99.90
23568;DHT22;11962;50.838;4.430;2023-05-10T06:40:32;15.20;99.90
23568;DHT22;11962;50.838;4.430;2023-05-10T06:42:58;15.20;99.90
23568;DHT22;11962;50.838;4.430;2023-05-10T06:45:27;15.20;99.90
23568;DHT22;11962;50.838;4.430;2023-05-10T06:47:53;15.20;99.90
23568;DHT22;11962;50.838;4.430;2023-05-10T06:50:18;15.30;99.90
23568;DHT22;11962;50.838;4.430;2023-05-10T06:52:44;15.40;99.90
23568;DHT22;11962;50.838;4.430;2023-05-10T06:55:10;15.40;99.90
23568;DHT22;11962;50.838;4.430;2023-05-10T06:57:36;15.40;99.90
23568;DHT22;11962;50.838;4.430;2023-05-10T07:00:02;15.40;99.90
23568;DHT22;11962;50.838;4.430;2023-05-10T07:02:30;15.40;99.90
23568;DHT22;11962;50.838;4.430;2023-05-10T07:04:56;15.40;99.90
23568;DHT22;11962;50.838;4.430;2023-05-10T07:07:21;15.50;99.90
23568;DHT22;11962;50.838;4.430;2023-05-10T07:09:47;15.50;99.90
23568;DHT22;11962;50.838;4.430;2023-05-10T07:12:14;15.50;99.90
23568;DHT22;11962;50.838;4.430;2023-05-10T07:14:40;15.40;99.90
23568;DHT22;11962;50.838;4.430;2023-05-10T07:17:05;15.40;99.90
23568;DHT22;11962;50.838;4.430;2023-05-10T07:19:31;15.40;99.90
23568;DHT22;11962;50.838;4.430;2023-05-10T07:21:58;15.30;99.90
23568;DHT22;11962;50.838;4.430;2023-05-10T07:24:24;15.30;99.90
23568;DHT22;11962;50.838;4.430;2023-05-10T07:26:49;15.30;99.90
23568;DHT22;11962;50.838;4.430;2023-05-10T07:29:15;15.40;99.90
23568;DHT22;11962;50.838;4.430;2023-05-10T07:31:41;15.30;99.90
23568;DHT22;11962;50.838;4.430;2023-05-10T07:34:09;15.30;99.90
23568;DHT22;11962;50.838;4.430;2023-05-10T07:36:35;15.30;99.90
23568;DHT22;11962;50.838;4.430;2023-05-10T07:39:01;15.20;99.90
23568;DHT22;11962;50.838;4.430;2023-05-10T07:41:27;15.20;99.90
23568;DHT22;11962;50.838;4.430;2023-05-10T07:43:53;15.30;99.90
23568;DHT22;11962;50.838;4.430;2023-05-10T07:46:19;15.20;99.90
23568;DHT22;11962;50.838;4.430;2023-05-10T07:48:45;15.20;99.90
23568;DHT22;11962;50.838;4.430;2023-05-10T07:51:11;15.20;99.90
23568;DHT22;11962;50.838;4.430;2023-05-10T07:53:37;15.20;99.90
23568;DHT22;11962;50.838;4.430;2023-05-10T07:58:51;15.10;99.90
23568;DHT22;11962;50.838;4.430;2023-05-10T08:01:17;15.10;99.90
23568;DHT22;11962;50.838;4.430;2023-05-10T08:03:42;15.00;99.90
23568;DHT22;11962;50.838;4.430;2023-05-10T08:06:08;15.00;99.90
23568;DHT22;11962;50.838;4.430;2023-05-10T08:08:34;15.10;99.90
23568;DHT22;11962;50.838;4.430;2023-05-10T08:10:59;15.10;99.90
23568;DHT22;11962;50.838;4.430;2023-05-10T08:13:25;15.30;99.90
23568;DHT22;11962;50.838;4.430;2023-05-10T08:15:51;15.30;99.90
23568;DHT22;11962;50.838;4.430;2023-05-10T08:18:18;15.40;99.90
23568;DHT22;11962;50.838;4.430;2023-05-10T08:20:44;15.50;99.90
23568;DHT22;11962;50.838;4.430;2023-05-10T08:23:11;15.60;99.90
23568;DHT22;11962;50.838;4.430;2023-05-10T08:25:37;15.70;99.90
23568;DHT22;11962;50.838;4.430;2023-05-10T08:28:03;15.90;99.90
23568;DHT22;11962;50.838;4.430;2023-05-10T08:30:29;15.90;99.90
23568;DHT22;11962;50.838;4.430;2023-05-10T08:32:55;16.00;99.90
23568;DHT22;11962;50.838;4.430;2023-05-10T08:35:20;16.10;99.90
23568;DHT22;11962;50.838;4.430;2023-05-10T08:37:46;16.00;99.90
23568;DHT22;11962;50.838;4.430;2023-05-10T08:40:12;16.00;99.90
23568;DHT22;11962;50.838;4.430;2023-05-10T08:42:40;16.00;99.90
23568;DHT22;11962;50.838;4.430;2023-05-10T08:45:07;16.00;99.90
23568;DHT22;11962;50.838;4.430;2023-05-10T08:47:36;16.10;99.90
23568;DHT22;11962;50.838;4.430;2023-05-10T08:50:03;16.10;99.90
23568;DHT22;11962;50.838;4.430;2023-05-10T08:52:30;16.10;99.90
23568;DHT22;11962;50.838;4.430;2023-05-10T08:54:58;16.10;99.90
23568;DHT22;11962;50.838;4.430;2023-05-10T08:57:24;16.10;99.90
23568;DHT22;11962;50.838;4.430;2023-05-10T08:59:50;16.10;99.90
23568;DHT22;11962;50.838;4.430;2023-05-10T09:02:17;16.10;99.90
23568;DHT22;11962;50.838;4.430;2023-05-10T09:04:43;16.20;99.90
23568;DHT22;11962;50.838;4.430;2023-05-10T09:07:10;16.30;99.90
23568;DHT22;11962;50.838;4.430;2023-05-10T09:09:36;16.40;99.90
23568;DHT22;11962;50.838;4.430;2023-05-10T09:12:02;16.50;99.90
23568;DHT22;11962;50.838;4.430;2023-05-10T09:14:29;16.40;99.90
23568;DHT22;11962;50.838;4.430;2023-05-10T09:16:56;16.50;99.90
23568;DHT22;11962;50.838;4.430;2023-05-10T09:19:22;16.50;99.90
23568;DHT22;11962;50.838;4.430;2023-05-10T09:21:49;16.50;99.90
23568;DHT22;11962;50.838;4.430;2023-05-10T09:24:15;16.40;99.90
23568;DHT22;11962;50.838;4.430;2023-05-10T09:26:47;16.40;99.90
23568;DHT22;11962;50.838;4.430;2023-05-10T09:29:16;16.50;99.90
23568;DHT22;11962;50.838;4.430;2023-05-10T09:31:47;16.50;99.90
23568;DHT22;11962;50.838;4.430;2023-05-10T09:34:30;16.60;99.90
23568;DHT22;11962;50.838;4.430;2023-05-10T09:37:01;16.60;99.90
23568;DHT22;11962;50.838;4.430;2023-05-10T09:39:35;16.50;99.90
23568;DHT22;11962;50.838;4.430;2023-05-10T09:42:03;16.50;99.90
23568;DHT22;11962;50.838;4.430;2023-05-10T09:44:31;16.50;99.90
23568;DHT22;11962;50.838;4.430;2023-05-10T09:46:56;16.50;99.90
23568;DHT22;11962;50.838;4.430;2023-05-10T09:49:22;16.60;99.90
23568;DHT22;11962;50.838;4.430;2023-05-10T09:52:03;16.70;99.90
23568;DHT22;11962;50.838;4.430;2023-05-10T09:54:29;16.60;99.90
23568;DHT22;11962;50.838;4.430;2023-05-10T09:56:55;16.60;99.90
23568;DHT22;11962;50.838;4.430;2023-05-10T09:59:21;16.70;99.90
23568;DHT22;11962;50.838;4.430;2023-05-10T10:01:50;16.60;99.90
23568;DHT22;11962;50.838;4.430;2023-05-10T10:04:17;16.70;99.90
23568;DHT22;11962;50.838;4.430;2023-05-10T10:06:42;16.70;99.90
23568;DHT22;11962;50.838;4.430;2023-05-10T10:09:09;16.70;99.90
23568;DHT22;11962;50.838;4.430;2023-05-10T10:11:38;16.60;99.90
23568;DHT22;11962;50.838;4.430;2023-05-10T10:14:05;16.70;99.90
23568;DHT22;11962;50.838;4.430;2023-05-10T10:16:32;16.80;99.90
23568;DHT22;11962;50.838;4.430;2023-05-10T10:18:58;16.90;99.90
23568;DHT22;11962;50.838;4.430;2023-05-10T10:21:24;17.00;99.90
23568;DHT22;11962;50.838;4.430;2023-05-10T10:23:51;17.10;99.90
23568;DHT22;11962;50.838;4.430;2023-05-10T10:26:17;17.00;99.90
23568;DHT22;11962;50.838;4.430;2023-05-10T10:31:41;17.00;99.90
23568;DHT22;11962;50.838;4.430;2023-05-10T10:34:28;17.20;99.90
23568;DHT22;11962;50.838;4.430;2023-05-10T10:36:56;17.40;99.90
23568;DHT22;11962;50.838;4.430;2023-05-10T10:39:23;17.50;99.90
23568;DHT22;11962;50.838;4.430;2023-05-10T10:41:54;17.40;99.90
23568;DHT22;11962;50.838;4.430;2023-05-10T10:52:34;17.70;99.90
23568;DHT22;11962;50.838;4.430;2023-05-10T10:57:35;18.10;99.90
23568;DHT22;11962;50.838;4.430;2023-05-10T11:00:30;18.30;99.90
23568;DHT22;11962;50.838;4.430;2023-05-10T11:03:06;18.40;99.90
23568;DHT22;11962;50.838;4.430;2023-05-10T11:05:39;18.30;99.90
23568;DHT22;11962;50.838;4.430;2023-05-10T11:08:30;18.40;99.90
23568;DHT22;11962;50.838;4.430;2023-05-10T11:13:38;18.90;99.90
23568;DHT22;11962;50.838;4.430;2023-05-10T11:16:18;19.10;99.90
23568;DHT22;11962;50.838;4.430;2023-05-10T11:18:58;19.30;99.90
23568;DHT22;11962;50.838;4.430;2023-05-10T11:21:24;19.50;99.90
23568;DHT22;11962;50.838;4.430;2023-05-10T11:23:52;19.60;99.90
23568;DHT22;11962;50.838;4.430;2023-05-10T11:26:22;19.40;99.90
23568;DHT22;11962;50.838;4.430;2023-05-10T11:28:52;19.40;99.90
23568;DHT22;11962;50.838;4.430;2023-05-10T11:31:19;19.30;99.90
23568;DHT22;11962;50.838;4.430;2023-05-10T11:33:45;19.40;99.90
23568;DHT22;11962;50.838;4.430;2023-05-10T11:36:19;19.60;99.90
23568;DHT22;11962;50.838;4.430;2023-05-10T11:38:46;19.70;99.90
23568;DHT22;11962;50.838;4.430;2023-05-10T11:41:12;19.70;99.90
23568;DHT22;11962;50.838;4.430;2023-05-10T11:43:39;19.80;99.90
23568;DHT22;11962;50.838;4.430;2023-05-10T11:46:10;19.90;99.90
23568;DHT22;11962;50.838;4.430;2023-05-10T11:48:38;19.90;99.90
23568;DHT22;11962;50.838;4.430;2023-05-10T11:51:04;19.80;99.90
23568;DHT22;11962;50.838;4.430;2023-05-10T11:53:32;19.90;99.90
23568;DHT22;11962;50.838;4.430;2023-05-10T11:56:07;20.00;99.90
23568;DHT22;11962;50.838;4.430;2023-05-10T11:58:34;20.10;99.90
23568;DHT22;11962;50.838;4.430;2023-05-10T12:01:00;20.30;99.90
23568;DHT22;11962;50.838;4.430;2023-05-10T12:03:30;20.30;99.90
23568;DHT22;11962;50.838;4.430;2023-05-10T12:05:57;20.20;99.90
23568;DHT22;11962;50.838;4.430;2023-05-10T12:08:27;20.20;99.90
23568;DHT22;11962;50.838;4.430;2023-05-10T12:11:03;20.30;99.90
23568;DHT22;11962;50.838;4.430;2023-05-10T12:13:29;20.20;99.90
23568;DHT22;11962;50.838;4.430;2023-05-10T12:15:57;20.40;99.90
23568;DHT22;11962;50.838;4.430;2023-05-10T12:18:23;20.50;99.90
23568;DHT22;11962;50.838;4.430;2023-05-10T12:20:52;20.70;99.90
23568;DHT22;11962;50.838;4.430;2023-05-10T12:23:21;20.90;99.90
23568;DHT22;11962;50.838;4.430;2023-05-10T12:25:47;21.00;99.90
23568;DHT22;11962;50.838;4.430;2023-05-10T12:28:13;21.10;99.90
23568;DHT22;11962;50.838;4.430;2023-05-10T12:30:38;20.90;99.90
23568;DHT22;11962;50.838;4.430;2023-05-10T12:33:12;21.00;99.90
23568;DHT22;11962;50.838;4.430;2023-05-10T12:35:53;21.00;99.90
23568;DHT22;11962;50.838;4.430;2023-05-10T12:38:35;21.10;99.90
23568;DHT22;11962;50.838;4.430;2023-05-10T12:41:08;21.30;99.90
23568;DHT22;11962;50.838;4.430;2023-05-10T12:43:34;21.50;99.90
23568;DHT22;11962;50.838;4.430;2023-05-10T12:46:10;21.40;99.90
23568;DHT22;11962;50.838;4.430;2023-05-10T12:48:37;21.60;99.90
23568;DHT22;11962;50.838;4.430;2023-05-10T12:51:04;21.60;99.90
23568;DHT22;11962;50.838;4.430;2023-05-10T12:53:30;21.80;99.90
23568;DHT22;11962;50.838;4.430;2023-05-10T12:55:56;21.80;99.90
23568;DHT22;11962;50.838;4.430;2023-05-10T12:58:22;21.90;99.90
23568;DHT22;11962;50.838;4.430;2023-05-10T13:00:48;22.00;99.90
23568;DHT22;11962;50.838;4.430;2023-05-10T13:03:14;22.00;99.90
23568;DHT22;11962;50.838;4.430;2023-05-10T13:05:41;22.00;99.90
23568;DHT22;11962;50.838;4.430;2023-05-10T13:08:07;22.00;99.90
23568;DHT22;11962;50.838;4.430;2023-05-10T13:10:32;22.00;99.90
23568;DHT22;11962;50.838;4.430;2023-05-10T13:12:59;21.90;99.90
23568;DHT22;11962;50.838;4.430;2023-05-10T13:15:25;22.00;99.90
23568;DHT22;11962;50.838;4.430;2023-05-10T13:17:51;22.00;99.90
23568;DHT22;11962;50.838;4.430;2023-05-10T13:20:17;21.90;99.90
23568;DHT22;11962;50.838;4.430;2023-05-10T13:22:44;22.00;99.90
23568;DHT22;11962;50.838;4.430;2023-05-10T13:25:10;22.10;99.90
23568;DHT22;11962;50.838;4.430;2023-05-10T13:27:36;22.30;99.90
23568;DHT22;11962;50.838;4.430;2023-05-10T13:30:03;22.30;99.90
23568;DHT22;11962;50.838;4.430;2023-05-10T13:32:29;22.30;99.90
23568;DHT22;11962;50.838;4.430;2023-05-10T13:34:56;22.40;99.90
23568;DHT22;11962;50.838;4.430;2023-05-10T13:37:22;22.50;99.90
23568;DHT22;11962;50.838;4.430;2023-05-10T13:39:48;22.50;99.90
23568;DHT22;11962;50.838;4.430;2023-05-10T13:42:14;22.70;99.90
23568;DHT22;11962;50.838;4.430;2023-05-10T13:44:39;22.70;99.90
23568;DHT22;11962;50.838;4.430;2023-05-10T13:47:05;22.60;99.90
23568;DHT22;11962;50.838;4.430;2023-05-10T13:49:31;22.40;99.90
23568;DHT22;11962;50.838;4.430;2023-05-10T13:51:57;22.30;99.90
23568;DHT22;11962;50.838;4.430;2023-05-10T13:54:24;22.20;99.90
23568;DHT22;11962;50.838;4.430;2023-05-10T13:56:49;22.30;99.90
23568;DHT22;11962;50.838;4.430;2023-05-10T13:59:15;22.40;99.90
23568;DHT22;11962;50.838;4.430;2023-05-10T14:01:42;22.30;99.90
23568;DHT22;11962;50.838;4.430;2023-05-10T14:04:08;22.40;99.90
23568;DHT22;11962;50.838;4.430;2023-05-10T14:06:36;22.30;99.90
23568;DHT22;11962;50.838;4.430;2023-05-10T14:09:03;22.30;99.90
23568;DHT22;11962;50.838;4.430;2023-05-10T14:11:28;22.20;99.90
23568;DHT22;11962;50.838;4.430;2023-05-10T14:13:54;22.10;99.90
23568;DHT22;11962;50.838;4.430;2023-05-10T14:16:20;22.00;99.90
23568;DHT22;11962;50.838;4.430;2023-05-10T14:18:46;21.70;99.90
23568;DHT22;11962;50.838;4.430;2023-05-10T14:21:12;21.50;99.90
23568;DHT22;11962;50.838;4.430;2023-05-10T14:23:38;21.30;99.90
23568;DHT22;11962;50.838;4.430;2023-05-10T14:26:04;21.20;99.90
23568;DHT22;11962;50.838;4.430;2023-05-10T14:28:30;21.10;99.90
23568;DHT22;11962;50.838;4.430;2023-05-10T14:30:56;21.20;99.90
23568;DHT22;11962;50.838;4.430;2023-05-10T14:33:22;21.20;99.90
23568;DHT22;11962;50.838;4.430;2023-05-10T14:35:48;21.20;99.90
23568;DHT22;11962;50.838;4.430;2023-05-10T14:38:14;21.00;99.90
23568;DHT22;11962;50.838;4.430;2023-05-10T14:40:40;20.80;99.90
23568;DHT22;11962;50.838;4.430;2023-05-10T14:43:05;20.70;99.90
23568;DHT22;11962;50.838;4.430;2023-05-10T14:45:31;20.80;99.90
23568;DHT22;11962;50.838;4.430;2023-05-10T14:47:58;20.80;99.90
23568;DHT22;11962;50.838;4.430;2023-05-10T14:50:24;20.80;99.90
23568;DHT22;11962;50.838;4.430;2023-05-10T14:52:50;20.60;99.90
23568;DHT22;11962;50.838;4.430;2023-05-10T14:55:15;20.30;99.90
23568;DHT22;11962;50.838;4.430;2023-05-10T14:57:41;20.20;99.90
23568;DHT22;11962;50.838;4.430;2023-05-10T15:00:08;20.00;99.90
23568;DHT22;11962;50.838;4.430;2023-05-10T15:02:34;19.90;99.90
23568;DHT22;11962;50.838;4.430;2023-05-10T15:05:00;19.70;99.90
23568;DHT22;11962;50.838;4.430;2023-05-10T15:07:26;19.50;99.90
23568;DHT22;11962;50.838;4.430;2023-05-10T15:09:51;19.30;99.90
23568;DHT22;11962;50.838;4.430;2023-05-10T15:12:18;19.30;99.90
23568;DHT22;11962;50.838;4.430;2023-05-10T15:14:44;19.20;99.90
23568;DHT22;11962;50.838;4.430;2023-05-10T15:17:10;19.00;99.90
23568;DHT22;11962;50.838;4.430;2023-05-10T15:19:36;18.90;99.90
23568;DHT22;11962;50.838;4.430;2023-05-10T15:22:03;18.70;99.90
23568;DHT22;11962;50.838;4.430;2023-05-10T15:24:29;18.60;99.90
23568;DHT22;11962;50.838;4.430;2023-05-10T15:26:55;18.60;99.90
23568;DHT22;11962;50.838;4.430;2023-05-10T15:29:21;18.50;99.90
23568;DHT22;11962;50.838;4.430;2023-05-10T15:31:47;18.40;99.90
23568;DHT22;11962;50.838;4.430;2023-05-10T15:34:14;18.40;99.90
23568;DHT22;11962;50.838;4.430;2023-05-10T15:36:39;18.40;99.90
23568;DHT22;11962;50.838;4.430;2023-05-10T15:39:05;18.40;99.90
23568;DHT22;11962;50.838;4.430;2023-05-10T15:41:31;18.40;99.90
23568;DHT22;11962;50.838;4.430;2023-05-10T15:43:57;18.40;99.90
23568;DHT22;11962;50.838;4.430;2023-05-10T15:46:25;18.30;99.90
23568;DHT22;11962;50.838;4.430;2023-05-10T15:48:51;18.30;99.90
23568;DHT22;11962;50.838;4.430;2023-05-10T15:51:17;18.30;99.90
23568;DHT22;11962;50.838;4.430;2023-05-10T15:53:44;18.40;99.90
23568;DHT22;11962;50.838;4.430;2023-05-10T15:56:10;18.50;99.90
23568;DHT22;11962;50.838;4.430;2023-05-10T15:58:37;18.60;99.90
23568;DHT22;11962;50.838;4.430;2023-05-10T16:01:04;18.60;99.90
23568;DHT22;11962;50.838;4.430;2023-05-10T16:03:33;18.70;99.90
23568;DHT22;11962;50.838;4.430;2023-05-10T16:05:59;18.90;99.90
23568;DHT22;11962;50.838;4.430;2023-05-10T16:08:26;19.00;99.90
23568;DHT22;11962;50.838;4.430;2023-05-10T16:10:52;19.10;99.90